Time;durP1;ratioP1;P1;durP2;ratioP2;P2;SDS_P1;SDS_P2;PMS_P1;PMS_P2;Temp;Humidity;BMP_temperature;BMP_pressure;BME280_temperature;BME280_humidity;BME280_pressure;Samples;Min_cycle;Max_cycle;Signal;HPM_P1;HPM_P2
2024/01/22 00:00:37;;;;;;;2.05;1.20;;;9.50;85.70;;;;;;5035449;28;20046;-68
2024/01/22 00:03:03;;;;;;;3.35;1.10;;;9.50;85.50;;;;;;5031100;28;20036;-67
2024/01/22 00:05:29;;;;;;;2.03;1.17;;;9.60;85.70;;;;;;5018963;28;20040;-66
2024/01/22 00:07:55;;;;;;;2.08;1.15;;;9.60;85.50;;;;;;5033362;28;20018;-67
2024/01/22 00:10:20;;;;;;;2.63;1.15;;;9.70;85.30;;;;;;5033201;28;20426;-67
2024/01/22 00:12:46;;;;;;;5.03;1.45;;;9.70;85.20;;;;;;5028341;28;20487;-66
2024/01/22 00:15:12;;;;;;;1.60;1.08;;;9.80;85.10;;;;;;5033927;28;20108;-67
2024/01/22 00:17:37;;;;;;;2.67;1.63;;;9.90;84.90;;;;;;5031971;28;20485;-67
2024/01/22 00:20:04;;;;;;;1.40;0.90;;;9.90;84.70;;;;;;5039438;28;20036;-67
2024/01/22 00:22:29;;;;;;;2.97;0.90;;;9.90;84.70;;;;;;5041278;28;20131;-67
2024/01/22 00:24:55;;;;;;;4.25;1.17;;;9.90;84.50;;;;;;5038644;28;20056;-67
2024/01/22 00:27:21;;;;;;;1.52;1.00;;;9.90;84.40;;;;;;5029818;28;20034;-66
2024/01/22 00:29:46;;;;;;;2.30;1.38;;;10.00;84.40;;;;;;5029724;28;20481;-67
2024/01/22 00:32:12;;;;;;;6.65;1.42;;;10.00;84.30;;;;;;5033880;28;20392;-67
2024/01/22 00:34:38;;;;;;;3.05;1.48;;;10.00;84.20;;;;;;5031103;28;20049;-67
2024/01/22 00:37:04;;;;;;;1.80;1.23;;;10.00;84.20;;;;;;5036267;28;20393;-67
2024/01/22 00:39:30;;;;;;;2.53;1.15;;;10.10;84.20;;;;;;5037127;28;20107;-73
2024/01/22 00:41:56;;;;;;;2.83;1.40;;;10.10;84.20;;;;;;5032563;28;20054;-67
2024/01/22 00:44:23;;;;;;;2.28;1.40;;;10.10;84.10;;;;;;5031039;28;20056;-72
2024/01/22 00:46:49;;;;;;;3.35;1.40;;;10.10;84.10;;;;;;5038110;28;20100;-73
2024/01/22 00:49:15;;;;;;;4.07;1.35;;;10.10;84.00;;;;;;5043224;28;20112;-68
2024/01/22 00:51:40;;;;;;;6.68;1.40;;;10.20;84.00;;;;;;5038334;28;20510;-67
2024/01/22 00:54:06;;;;;;;1.10;1.00;;;10.20;84.10;;;;;;5037537;28;20025;-68
2024/01/22 00:56:33;;;;;;;2.50;1.10;;;10.20;84.10;;;;;;5035352;28;20029;-67
2024/01/22 00:58:59;;;;;;;1.98;1.38;;;10.20;83.90;;;;;;5032587;28;20455;-67
2024/01/22 01:01:25;;;;;;;2.88;1.70;;;10.30;83.70;;;;;;5011483;28;20026;-73
2024/01/22 01:03:51;;;;;;;1.83;1.20;;;10.30;83.50;;;;;;5040847;28;20448;-73
2024/01/22 01:06:16;;;;;;;2.67;1.10;;;10.40;83.40;;;;;;5036259;28;20026;-73
2024/01/22 01:08:42;;;;;;;2.10;1.38;;;10.40;83.30;;;;;;5034044;28;20033;-73
2024/01/22 01:11:08;;;;;;;1.40;1.10;;;10.40;83.20;;;;;;5033467;28;20030;-73
2024/01/22 01:13:33;;;;;;;2.20;1.67;;;10.40;83.30;;;;;;5036539;28;20080;-73
2024/01/22 01:15:59;;;;;;;1.45;1.35;;;10.40;83.30;;;;;;5033211;28;20032;-73
2024/01/22 01:18:25;;;;;;;1.20;0.90;;;10.50;83.20;;;;;;5040633;28;20103;-73
2024/01/22 01:20:51;;;;;;;2.63;1.55;;;10.50;82.90;;;;;;5041327;28;20049;-73
2024/01/22 01:23:16;;;;;;;1.63;1.08;;;10.50;82.90;;;;;;5035968;28;21371;-73
2024/01/22 01:25:42;;;;;;;2.20;1.23;;;10.60;83.00;;;;;;5031739;28;20018;-73
2024/01/22 01:28:08;;;;;;;2.58;1.20;;;10.60;82.90;;;;;;5035360;28;20037;-72
2024/01/22 01:30:33;;;;;;;1.80;1.35;;;10.60;82.80;;;;;;5027472;28;20044;-73
2024/01/22 01:32:59;;;;;;;1.88;1.10;;;10.60;82.70;;;;;;5039615;28;20065;-73
2024/01/22 01:35:25;;;;;;;1.92;1.25;;;10.60;82.70;;;;;;5039634;28;20033;-67
2024/01/22 01:37:52;;;;;;;1.95;1.27;;;10.70;82.70;;;;;;5041157;28;20129;-67
2024/01/22 01:40:18;;;;;;;3.00;1.23;;;10.70;82.60;;;;;;5035263;28;20036;-73
2024/01/22 01:42:44;;;;;;;2.00;1.42;;;10.80;82.40;;;;;;5034823;28;20025;-73
2024/01/22 01:45:14;;;;;;;2.08;1.38;;;10.80;82.40;;;;;;5035292;28;20040;-73
2024/01/22 01:47:42;;;;;;;2.08;1.27;;;10.80;82.20;;;;;;5035988;28;20028;-74
2024/01/22 01:50:08;;;;;;;1.80;1.05;;;10.80;82.10;;;;;;5035969;28;20400;-74
2024/01/22 01:52:34;;;;;;;4.13;1.52;;;10.90;82.40;;;;;;5038316;28;20037;-74
2024/01/22 01:55:02;;;;;;;1.17;1.00;;;10.90;82.30;;;;;;5036194;28;20488;-74
2024/01/22 01:57:28;;;;;;;2.97;1.33;;;10.90;82.30;;;;;;5045160;28;20048;-74
2024/01/22 01:59:54;;;;;;;2.58;1.08;;;10.90;82.60;;;;;;5033386;28;20059;-75
2024/01/22 02:02:20;;;;;;;1.40;1.20;;;10.90;82.70;;;;;;5037913;28;20108;-74
2024/01/22 02:04:46;;;;;;;1.55;0.90;;;10.90;82.80;;;;;;5038203;28;20484;-74
2024/01/22 02:07:12;;;;;;;3.40;1.25;;;10.90;83.00;;;;;;4992743;28;20119;-74
2024/01/22 02:09:46;;;;;;;1.55;1.17;;;10.90;83.10;;;;;;5053068;28;20037;-74
2024/01/22 02:12:12;;;;;;;3.25;1.35;;;10.90;83.20;;;;;;5032224;28;20026;-67
2024/01/22 02:14:37;;;;;;;1.35;1.08;;;10.90;83.30;;;;;;5033494;28;20041;-68
2024/01/22 02:17:03;;;;;;;1.08;0.80;;;10.90;83.40;;;;;;5038211;28;20033;-66
2024/01/22 02:19:30;;;;;;;1.00;0.82;;;10.90;83.20;;;;;;5035279;28;20034;-65
2024/01/22 02:21:55;;;;;;;1.50;1.38;;;10.90;83.10;;;;;;5032170;28;20057;-65
2024/01/22 02:24:21;;;;;;;6.47;2.05;;;11.00;83.20;;;;;;5030383;28;20022;-65
2024/01/22 02:26:47;;;;;;;2.05;0.85;;;11.00;83.00;;;;;;5029000;28;20084;-65
2024/01/22 02:29:13;;;;;;;2.28;0.98;;;11.10;82.90;;;;;;5043729;28;20040;-67
2024/01/22 02:31:38;;;;;;;2.03;0.98;;;11.10;82.70;;;;;;5037645;28;20501;-68
2024/01/22 02:34:04;;;;;;;2.25;0.77;;;11.00;82.80;;;;;;5040235;28;20025;-67
2024/01/22 02:36:30;;;;;;;1.40;1.30;;;11.10;82.80;;;;;;5036520;28;20480;-67
2024/01/22 02:38:55;;;;;;;1.25;0.80;;;11.10;82.60;;;;;;5034702;28;20343;-74
2024/01/22 02:41:21;;;;;;;0.80;0.77;;;11.20;82.50;;;;;;5037665;28;20033;-74
2024/01/22 02:43:47;;;;;;;0.95;0.70;;;11.20;82.40;;;;;;5036634;28;20160;-74
2024/01/22 02:46:12;;;;;;;1.75;0.70;;;11.30;82.30;;;;;;5037513;28;20036;-74
2024/01/22 02:48:38;;;;;;;2.05;0.85;;;11.30;82.40;;;;;;5037364;28;20519;-74
2024/01/22 02:51:11;;;;;;;1.83;0.98;;;11.30;82.50;;;;;;5037989;28;20112;-74
2024/01/22 02:53:37;;;;;;;1.38;0.95;;;11.30;82.50;;;;;;5038377;28;20040;-74
2024/01/22 02:56:03;;;;;;;2.63;1.25;;;11.30;82.90;;;;;;5036743;28;20512;-75
2024/01/22 02:58:31;;;;;;;0.77;0.73;;;11.30;83.50;;;;;;5028812;28;20041;-74
2024/01/22 03:00:57;;;;;;;1.52;1.17;;;11.30;84.10;;;;;;5038072;28;20017;-74
2024/01/22 03:03:22;;;;;;;1.63;1.05;;;11.20;85.40;;;;;;5031661;28;20033;-74
2024/01/22 03:05:48;;;;;;;1.38;0.80;;;11.10;85.00;;;;;;5037598;28;20029;-66
2024/01/22 03:08:14;;;;;;;0.70;0.55;;;11.10;85.30;;;;;;5034436;28;20033;-67
2024/01/22 03:10:40;;;;;;;0.75;0.70;;;11.10;85.50;;;;;;5030998;28;20037;-66
2024/01/22 03:13:05;;;;;;;0.90;0.70;;;11.10;85.90;;;;;;5028346;28;20047;-66
2024/01/22 03:15:31;;;;;;;0.73;0.73;;;11.10;86.20;;;;;;5032998;28;20044;-67
2024/01/22 03:17:57;;;;;;;1.75;1.30;;;11.10;86.40;;;;;;5032205;28;20041;-67
2024/01/22 03:20:22;;;;;;;1.75;1.23;;;11.10;86.60;;;;;;5037600;28;20532;-66
2024/01/22 03:22:48;;;;;;;2.13;1.13;;;11.10;86.90;;;;;;5029684;28;20045;-66
2024/01/22 03:25:14;;;;;;;0.60;0.60;;;11.10;87.20;;;;;;5033866;28;20026;-66
2024/01/22 03:27:40;;;;;;;1.35;0.75;;;11.10;87.20;;;;;;5038010;28;20571;-66
2024/01/22 03:30:07;;;;;;;0.98;0.70;;;11.10;87.00;;;;;;5038641;28;20029;-66
2024/01/22 03:32:32;;;;;;;0.90;0.90;;;11.10;87.20;;;;;;5034192;28;20025;-73
2024/01/22 03:34:58;;;;;;;0.60;0.60;;;11.10;87.20;;;;;;5032272;28;20108;-66
2024/01/22 03:37:24;;;;;;;0.77;0.70;;;11.20;87.30;;;;;;5029846;28;20036;-66
2024/01/22 03:39:50;;;;;;;0.80;0.60;;;11.10;87.30;;;;;;5034840;28;20369;-67
2024/01/22 03:42:16;;;;;;;0.77;0.68;;;11.20;87.30;;;;;;5035597;28;20053;-66
2024/01/22 03:44:41;;;;;;;0.70;0.70;;;11.30;87.30;;;;;;5040755;28;20029;-66
2024/01/22 03:47:07;;;;;;;1.30;1.08;;;11.20;87.30;;;;;;5063924;28;20036;-66
2024/01/22 03:49:33;;;;;;;0.70;0.70;;;11.30;87.70;;;;;;5030762;28;20542;-74
2024/01/22 03:51:59;;;;;;;1.55;1.17;;;11.30;87.20;;;;;;5034424;28;20029;-74
2024/01/22 03:54:24;;;;;;;1.30;0.93;;;11.30;87.30;;;;;;5034876;28;20474;-64
2024/01/22 03:56:50;;;;;;;1.10;1.00;;;11.30;87.30;;;;;;5033804;28;20025;-72
2024/01/22 03:59:16;;;;;;;3.70;0.88;;;11.30;87.50;;;;;;5035404;28;20049;-72
2024/01/22 04:01:41;;;;;;;3.30;1.05;;;11.30;87.70;;;;;;5038961;28;20392;-72
2024/01/22 04:04:07;;;;;;;1.38;0.82;;;11.30;88.50;;;;;;5034535;28;20506;-72
2024/01/22 04:06:33;;;;;;;0.55;0.50;;;11.20;88.60;;;;;;5043007;28;20112;-72
2024/01/22 04:08:59;;;;;;;0.70;0.60;;;11.10;89.00;;;;;;5040756;28;20049;-72
2024/01/22 04:11:24;;;;;;;4.30;1.15;;;11.10;89.20;;;;;;5042136;28;20068;-72
2024/01/22 04:13:50;;;;;;;1.23;0.80;;;11.10;89.60;;;;;;5034580;28;20065;-72
2024/01/22 04:16:16;;;;;;;0.82;0.73;;;11.10;89.80;;;;;;5070665;28;20031;-72
2024/01/22 04:18:42;;;;;;;1.58;0.98;;;11.10;90.00;;;;;;5041136;28;20029;-72
2024/01/22 04:21:09;;;;;;;0.88;0.63;;;11.10;90.00;;;;;;5042173;28;20576;-65
2024/01/22 04:23:35;;;;;;;0.70;0.63;;;11.10;90.10;;;;;;5041539;28;20258;-66
2024/01/22 04:26:05;;;;;;;1.38;0.77;;;11.10;90.10;;;;;;5037217;28;20136;-65
2024/01/22 04:28:31;;;;;;;1.48;0.88;;;11.10;90.10;;;;;;5034700;28;20061;-64
2024/01/22 04:30:56;;;;;;;0.80;0.70;;;11.20;90.30;;;;;;5035155;28;20065;-64
2024/01/22 04:33:22;;;;;;;1.35;0.90;;;11.20;90.40;;;;;;5036130;28;20037;-65
2024/01/22 04:35:50;;;;;;;1.63;0.60;;;11.20;90.50;;;;;;5036638;28;20107;-65
2024/01/22 04:38:17;;;;;;;0.50;0.50;;;11.20;90.50;;;;;;5037077;28;20028;-65
2024/01/22 04:40:43;;;;;;;1.13;0.70;;;11.20;90.60;;;;;;5035157;28;20469;-65
2024/01/22 04:43:08;;;;;;;0.50;0.38;;;11.20;90.80;;;;;;5031710;28;20041;-65
2024/01/22 04:45:34;;;;;;;0.73;0.50;;;11.20;90.80;;;;;;5042192;28;20112;-64
2024/01/22 04:48:00;;;;;;;1.33;0.55;;;11.20;90.70;;;;;;5034290;28;20041;-65
2024/01/22 04:50:26;;;;;;;0.60;0.60;;;11.30;90.80;;;;;;5037958;28;20059;-65
2024/01/22 04:52:52;;;;;;;1.00;0.65;;;11.30;90.70;;;;;;5041078;28;20779;-72
2024/01/22 04:55:17;;;;;;;0.60;0.52;;;11.40;90.70;;;;;;5045443;28;20510;-72
2024/01/22 04:57:43;;;;;;;2.25;0.75;;;11.40;90.70;;;;;;5035060;28;20041;-65
2024/01/22 05:00:09;;;;;;;0.57;0.50;;;11.40;90.70;;;;;;5035125;28;20030;-65
2024/01/22 05:02:35;;;;;;;2.33;0.57;;;11.50;90.60;;;;;;5037984;28;20044;-72
2024/01/22 05:05:01;;;;;;;1.33;0.82;;;11.50;90.60;;;;;;5034396;28;20037;-65
2024/01/22 05:07:27;;;;;;;1.20;0.65;;;11.60;90.60;;;;;;5004710;28;20018;-65
2024/01/22 05:09:58;;;;;;;0.73;0.73;;;11.60;90.50;;;;;;5042646;28;20067;-65
2024/01/22 05:12:26;;;;;;;0.50;0.50;;;11.60;90.50;;;;;;5043014;28;20471;-65
2024/01/22 05:14:52;;;;;;;2.22;0.70;;;11.60;90.60;;;;;;5044578;28;20066;-65
2024/01/22 05:17:18;;;;;;;0.50;0.45;;;11.60;90.50;;;;;;5036285;28;20046;-64
2024/01/22 05:19:44;;;;;;;0.70;0.60;;;11.70;90.50;;;;;;5034513;28;20071;-65
2024/01/22 05:22:10;;;;;;;1.00;0.45;;;11.70;90.60;;;;;;5035358;28;20049;-65
2024/01/22 05:24:36;;;;;;;0.63;0.63;;;11.70;90.50;;;;;;5032182;28;20045;-65
2024/01/22 05:27:04;;;;;;;0.60;0.50;;;11.70;90.50;;;;;;5016106;28;20044;-72
2024/01/22 05:29:30;;;;;;;2.10;1.05;;;11.70;90.70;;;;;;5039651;28;20094;-72
2024/01/22 05:31:56;;;;;;;0.60;0.60;;;11.70;90.70;;;;;;5032702;28;20033;-72
2024/01/22 05:34:22;;;;;;;0.75;0.45;;;11.80;90.70;;;;;;5041656;28;20025;-72
2024/01/22 05:36:47;;;;;;;0.68;0.38;;;11.80;90.60;;;;;;5039589;28;20049;-65
2024/01/22 05:39:13;;;;;;;0.38;0.32;;;11.90;90.50;;;;;;5038296;28;20033;-65
2024/01/22 05:41:41;;;;;;;0.35;0.35;;;11.80;90.50;;;;;;5033237;28;20418;-65
2024/01/22 05:44:07;;;;;;;1.30;0.57;;;11.90;90.40;;;;;;5032989;28;20028;-65
2024/01/22 05:46:33;;;;;;;0.43;0.43;;;11.90;90.40;;;;;;5034176;28;20026;-65
2024/01/22 05:48:59;;;;;;;0.57;0.50;;;11.90;90.40;;;;;;5033631;28;20508;-65
2024/01/22 05:51:25;;;;;;;1.40;0.70;;;12.00;90.40;;;;;;5020443;28;20052;-65
2024/01/22 05:53:51;;;;;;;0.98;0.52;;;12.00;90.40;;;;;;5040483;28;20488;-66
2024/01/22 05:56:26;;;;;;;0.93;0.80;;;12.00;90.40;;;;;;5033332;28;20034;-72
2024/01/22 05:58:53;;;;;;;1.25;0.57;;;12.10;90.50;;;;;;5033500;28;20033;-72
2024/01/22 06:01:25;;;;;;;0.73;0.30;;;12.10;90.50;;;;;;5037249;28;20033;-72
2024/01/22 06:03:50;;;;;;;1.17;0.70;;;12.20;90.50;;;;;;5034044;28;20025;-72
2024/01/22 06:06:16;;;;;;;2.17;1.02;;;12.20;90.40;;;;;;5036085;28;20267;-72
2024/01/22 06:08:42;;;;;;;5.55;0.75;;;12.30;90.30;;;;;;5043671;28;20498;-71
2024/01/22 06:11:08;;;;;;;0.32;0.32;;;12.30;90.30;;;;;;5031133;28;20044;-71
2024/01/22 06:13:41;;;;;;;0.47;0.45;;;12.30;90.20;;;;;;5036704;28;20418;-71
2024/01/22 06:16:09;;;;;;;1.98;0.80;;;12.40;90.20;;;;;;5033986;28;20056;-72
2024/01/22 06:18:36;;;;;;;1.23;0.55;;;12.40;90.10;;;;;;5038065;28;20040;-72
2024/01/22 06:21:02;;;;;;;0.32;0.32;;;12.50;90.00;;;;;;5036485;28;20043;-65
2024/01/22 06:23:28;;;;;;;1.40;0.75;;;12.50;89.90;;;;;;5035206;28;20457;-65
2024/01/22 06:25:56;;;;;;;0.65;0.50;;;12.60;89.80;;;;;;5038250;28;20113;-65
2024/01/22 06:28:23;;;;;;;0.45;0.20;;;12.60;89.60;;;;;;5025336;28;20044;-65
2024/01/22 06:30:48;;;;;;;1.15;0.30;;;12.70;89.40;;;;;;5039845;28;20040;-65
2024/01/22 06:33:14;;;;;;;0.30;0.30;;;12.70;89.30;;;;;;5031863;28;21160;-65
2024/01/22 06:35:40;;;;;;;2.13;0.55;;;12.80;89.30;;;;;;5062266;28;20152;-65
2024/01/22 06:38:05;;;;;;;1.95;0.57;;;12.80;89.20;;;;;;5016573;28;20497;-65
2024/01/22 06:40:33;;;;;;;0.55;0.45;;;12.80;88.90;;;;;;5040230;28;20123;-65
2024/01/22 06:42:58;;;;;;;0.75;0.60;;;12.90;88.80;;;;;;5040320;28;20503;-65
2024/01/22 06:45:25;;;;;;;0.30;0.20;;;12.90;88.80;;;;;;5037701;28;20029;-72
2024/01/22 06:47:52;;;;;;;0.95;0.38;;;13.00;88.90;;;;;;5027924;28;20057;-74
2024/01/22 06:50:18;;;;;;;1.02;0.40;;;13.00;88.90;;;;;;5033935;28;20029;-74
2024/01/22 06:52:46;;;;;;;3.00;0.63;;;13.00;89.00;;;;;;5030171;28;20033;-72
2024/01/22 06:55:12;;;;;;;0.40;0.38;;;13.00;89.20;;;;;;5041282;28;20033;-72
2024/01/22 06:57:38;;;;;;;2.38;0.70;;;12.90;89.40;;;;;;5031246;28;20500;-72
2024/01/22 07:00:07;;;;;;;0.50;0.50;;;12.90;89.70;;;;;;5037780;28;20029;-72
2024/01/22 07:02:33;;;;;;;7.22;0.85;;;12.90;89.70;;;;;;5035076;28;20121;-64
2024/01/22 07:04:59;;;;;;;0.35;0.35;;;12.90;89.60;;;;;;5041479;28;20017;-65
2024/01/22 07:07:25;;;;;;;0.45;0.30;;;12.90;89.70;;;;;;5033026;28;20033;-64
2024/01/22 07:09:52;;;;;;;4.22;1.00;;;12.90;90.10;;;;;;5041860;28;20031;-72
2024/01/22 07:12:19;;;;;;;0.60;0.45;;;12.90;89.60;;;;;;5033693;28;20117;-72
2024/01/22 07:14:45;;;;;;;1.25;1.02;;;12.90;89.50;;;;;;5034876;28;20396;-66
2024/01/22 07:17:13;;;;;;;5.22;0.43;;;12.90;89.60;;;;;;5033602;28;20354;-65
2024/01/22 07:19:39;;;;;;;0.73;0.60;;;12.90;89.70;;;;;;5035591;28;20033;-64
2024/01/22 07:22:04;;;;;;;1.67;0.70;;;12.90;89.80;;;;;;5039395;28;20588;-65
2024/01/22 07:24:31;;;;;;;0.30;0.30;;;12.80;89.70;;;;;;5033809;28;20075;-65
2024/01/22 07:26:57;;;;;;;2.53;0.90;;;12.80;89.70;;;;;;5070426;28;20029;-72
2024/01/22 07:29:23;;;;;;;0.68;0.68;;;12.90;89.60;;;;;;5038433;28;20507;-65
2024/01/22 07:31:48;;;;;;;3.65;0.85;;;12.80;89.40;;;;;;5032457;28;20148;-65
2024/01/22 07:34:14;;;;;;;4.68;0.93;;;12.80;89.30;;;;;;5035582;28;20091;-64
2024/01/22 07:36:39;;;;;;;0.30;0.30;;;12.90;89.20;;;;;;5028069;28;20034;-65
2024/01/22 07:39:07;;;;;;;3.88;1.38;;;12.90;88.80;;;;;;5034597;28;20033;-64
2024/01/22 07:41:36;;;;;;;3.03;0.88;;;13.00;88.60;;;;;;5040222;28;20033;-65
2024/01/22 07:44:03;;;;;;;5.38;1.02;;;13.00;88.30;;;;;;5043001;28;20029;-65
2024/01/22 07:46:29;;;;;;;2.95;0.85;;;13.00;87.90;;;;;;5032872;28;20126;-65
2024/01/22 07:48:55;;;;;;;1.15;0.45;;;13.00;87.80;;;;;;5038625;28;20025;-72
2024/01/22 07:51:21;;;;;;;0.47;0.47;;;13.00;87.70;;;;;;5037262;28;20117;-71
2024/01/22 07:53:47;;;;;;;2.13;0.45;;;13.00;87.60;;;;;;5043773;28;20028;-72
2024/01/22 07:56:12;;;;;;;5.20;0.82;;;13.10;87.50;;;;;;5039181;28;20040;-72
2024/01/22 07:58:42;;;;;;;0.88;0.60;;;13.10;87.20;;;;;;5036815;28;20072;-72
2024/01/22 08:01:08;;;;;;;1.05;0.90;;;13.10;87.20;;;;;;5032191;28;20029;-71
2024/01/22 08:03:34;;;;;;;1.90;0.70;;;13.10;87.20;;;;;;5042830;28;20476;-72
2024/01/22 08:06:00;;;;;;;2.17;0.68;;;13.10;87.10;;;;;;5038312;28;20034;-72
2024/01/22 08:08:29;;;;;;;1.35;1.05;;;13.10;87.10;;;;;;5041045;28;20506;-71
2024/01/22 08:10:55;;;;;;;1.98;0.43;;;13.10;87.00;;;;;;5036102;28;21468;-72
2024/01/22 08:13:21;;;;;;;2.97;1.00;;;13.20;87.00;;;;;;5038096;28;20061;-70
2024/01/22 08:15:48;;;;;;;1.50;0.88;;;13.20;86.90;;;;;;5036203;28;20026;-72
2024/01/22 08:18:14;;;;;;;1.15;0.80;;;13.10;86.90;;;;;;5041659;28;20064;-64
2024/01/22 08:20:41;;;;;;;1.75;1.27;;;13.10;86.90;;;;;;5043616;28;20030;-65
2024/01/22 08:23:07;;;;;;;3.45;0.95;;;13.10;87.00;;;;;;5036709;28;20033;-66
2024/01/22 08:25:33;;;;;;;1.52;0.77;;;13.10;87.30;;;;;;5034058;28;20107;-63
2024/01/22 08:28:00;;;;;;;2.60;0.73;;;13.10;87.50;;;;;;5038580;28;20021;-66
2024/01/22 08:30:26;;;;;;;2.08;1.17;;;13.10;88.10;;;;;;5033547;28;20052;-65
2024/01/22 08:32:52;;;;;;;5.80;1.00;;;13.10;87.60;;;;;;5039160;28;20033;-71
2024/01/22 08:35:19;;;;;;;2.58;1.17;;;13.10;87.70;;;;;;5043914;28;20028;-71
2024/01/22 08:37:47;;;;;;;3.47;1.00;;;13.00;88.40;;;;;;5037646;28;20061;-69
2024/01/22 08:40:17;;;;;;;3.75;1.15;;;13.00;88.20;;;;;;5032720;28;20064;-70
2024/01/22 08:42:45;;;;;;;3.58;0.63;;;13.00;88.20;;;;;;5040721;28;20116;-70
2024/01/22 08:45:11;;;;;;;4.15;1.05;;;13.00;88.20;;;;;;5034533;28;20389;-70
2024/01/22 08:47:37;;;;;;;2.83;0.70;;;13.10;88.20;;;;;;5042231;28;20029;-63
2024/01/22 08:50:04;;;;;;;2.45;1.02;;;13.10;88.30;;;;;;5038462;28;20027;-64
2024/01/22 08:52:30;;;;;;;0.95;0.50;;;13.10;88.20;;;;;;5040599;28;20117;-62
2024/01/22 08:54:56;;;;;;;3.03;1.10;;;13.10;88.20;;;;;;5039135;28;20112;-65
2024/01/22 08:57:22;;;;;;;3.83;1.00;;;13.00;88.20;;;;;;5072591;28;20132;-65
2024/01/22 08:59:48;;;;;;;3.53;1.15;;;13.00;88.30;;;;;;5039938;28;20057;-66
2024/01/22 09:02:14;;;;;;;4.82;0.50;;;13.00;88.40;;;;;;5040887;28;20037;-65
2024/01/22 09:04:40;;;;;;;1.67;0.80;;;13.10;88.40;;;;;;5072843;28;20052;-67
2024/01/22 09:07:06;;;;;;;2.80;0.70;;;13.10;88.30;;;;;;5014833;28;20037;-65
2024/01/22 09:09:31;;;;;;;0.98;0.60;;;13.10;88.30;;;;;;5024585;28;20526;-65
2024/01/22 09:11:57;;;;;;;3.22;1.27;;;13.10;88.30;;;;;;5017534;28;20091;-65
2024/01/22 09:14:23;;;;;;;5.13;1.58;;;13.10;88.20;;;;;;5020362;28;20116;-65
2024/01/22 09:16:48;;;;;;;3.10;0.68;;;13.10;88.20;;;;;;5026622;28;20361;-66
2024/01/22 09:19:14;;;;;;;7.93;2.17;;;13.10;88.10;;;;;;5027461;28;20034;-71
2024/01/22 09:21:40;;;;;;;4.57;1.20;;;13.10;88.20;;;;;;5059557;28;20069;-70
2024/01/22 09:24:05;;;;;;;5.65;1.55;;;13.10;88.30;;;;;;5025573;28;20033;-65
2024/01/22 09:26:31;;;;;;;1.90;0.98;;;13.00;88.60;;;;;;5027770;28;20045;-65
2024/01/22 09:28:57;;;;;;;2.97;1.02;;;13.10;88.60;;;;;;5029517;28;20476;-70
2024/01/22 09:31:23;;;;;;;1.60;1.00;;;13.00;88.50;;;;;;5025871;28;20045;-70
2024/01/22 09:33:51;;;;;;;2.58;1.38;;;13.10;88.40;;;;;;5029085;28;20501;-71
2024/01/22 09:36:17;;;;;;;4.68;1.20;;;13.10;88.40;;;;;;5028483;28;20390;-71
2024/01/22 09:38:43;;;;;;;2.88;0.98;;;13.10;88.60;;;;;;5029359;28;20505;-71
2024/01/22 09:41:09;;;;;;;7.80;2.13;;;13.10;88.70;;;;;;5030773;28;20110;-70
2024/01/22 09:43:35;;;;;;;4.53;1.45;;;13.00;89.20;;;;;;5065478;28;20037;-70
2024/01/22 09:46:01;;;;;;;2.55;1.25;;;12.90;89.50;;;;;;5024702;28;20514;-70
2024/01/22 09:48:29;;;;;;;1.20;0.68;;;12.90;89.90;;;;;;5024993;28;20090;-66
2024/01/22 09:50:55;;;;;;;2.17;0.88;;;12.80;90.00;;;;;;5025632;28;20033;-65
2024/01/22 09:53:23;;;;;;;2.28;1.27;;;12.70;89.90;;;;;;5025874;28;20032;-65
2024/01/22 09:55:52;;;;;;;1.13;1.02;;;12.60;89.70;;;;;;5028566;28;20098;-65
2024/01/22 09:58:26;;;;;;;2.28;1.13;;;12.50;89.20;;;;;;5024913;28;20069;-66
2024/01/22 10:00:52;;;;;;;2.55;0.82;;;12.50;89.30;;;;;;5026230;28;20053;-65
2024/01/22 10:03:18;;;;;;;5.22;1.13;;;12.40;88.50;;;;;;5025138;28;20396;-70
2024/01/22 10:05:46;;;;;;;5.10;1.05;;;12.20;88.00;;;;;;5023051;28;20026;-65
2024/01/22 10:08:11;;;;;;;2.47;0.88;;;12.10;87.90;;;;;;5028053;28;20113;-70
2024/01/22 10:10:37;;;;;;;9.30;1.48;;;12.00;87.90;;;;;;5027845;28;20121;-70
2024/01/22 10:13:04;;;;;;;9.63;1.40;;;12.00;88.10;;;;;;5025361;28;20451;-70
2024/01/22 10:15:31;;;;;;;3.92;1.13;;;12.00;88.10;;;;;;5028651;28;20029;-65
2024/01/22 10:18:17;;;;;;;2.30;0.93;;;11.90;88.00;;;;;;5029672;28;20909;-65
2024/01/22 10:20:44;;;;;;;4.75;0.60;;;11.90;88.00;;;;;;5028044;28;20029;-65
2024/01/22 10:23:11;;;;;;;4.45;1.13;;;11.80;88.10;;;;;;5028005;28;20117;-65
2024/01/22 10:25:37;;;;;;;3.25;1.17;;;11.90;88.20;;;;;;5024691;28;20549;-65
2024/01/22 10:28:07;;;;;;;5.40;1.05;;;11.90;88.20;;;;;;5022380;28;20079;-70
2024/01/22 10:30:33;;;;;;;6.32;1.38;;;11.90;87.90;;;;;;5026599;28;20139;-69
2024/01/22 10:33:16;;;;;;;3.05;0.55;;;11.90;87.50;;;;;;5060727;28;20036;-70
2024/01/22 10:35:43;;;;;;;5.65;1.27;;;11.80;87.60;;;;;;5030039;28;20042;-70
2024/01/22 10:38:18;;;;;;;3.63;1.02;;;11.80;87.40;;;;;;5031265;28;20044;-65
2024/01/22 10:40:45;;;;;;;3.72;1.25;;;11.90;87.40;;;;;;5028260;28;20112;-65
2024/01/22 10:43:28;;;;;;;9.05;1.20;;;11.90;87.30;;;;;;5061516;28;20080;-65
2024/01/22 10:45:56;;;;;;;2.42;1.05;;;11.90;87.20;;;;;;5022888;28;20080;-65
2024/01/22 10:48:28;;;;;;;5.20;1.10;;;11.90;87.10;;;;;;5028114;28;20517;-66
2024/01/22 10:50:55;;;;;;;4.35;1.00;;;11.90;87.40;;;;;;5030138;28;20041;-65
2024/01/22 10:53:21;;;;;;;4.75;1.42;;;11.90;87.30;;;;;;5021312;28;20025;-65
2024/01/22 10:56:10;;;;;;;6.38;1.55;;;11.90;87.30;;;;;;5032070;28;20063;-65
2024/01/22 10:58:44;;;;;;;9.57;2.85;;;11.90;87.20;;;;;;5017502;28;20041;-65
2024/01/22 11:01:18;;;;;;;3.97;1.33;;;11.80;87.80;;;;;;5028471;28;20136;-70
2024/01/22 11:03:49;;;;;;;1.65;1.48;;;11.80;87.30;;;;;;5037423;28;20020;-70
2024/01/22 11:06:18;;;;;;;13.45;2.38;;;11.80;87.30;;;;;;5031099;28;20076;-70
2024/01/22 11:08:54;;;;;;;2.63;0.93;;;11.80;87.30;;;;;;5034675;28;20317;-70
2024/01/22 11:11:24;;;;;;;3.05;1.85;;;11.70;87.30;;;;;;5029031;28;20044;-70
2024/01/22 11:13:56;;;;;;;3.35;1.52;;;11.80;87.40;;;;;;5034683;28;20041;-65
2024/01/22 11:16:22;;;;;;;9.73;1.10;;;11.80;87.00;;;;;;5035770;28;20083;-65
2024/01/22 11:18:58;;;;;;;3.00;1.17;;;11.80;87.00;;;;;;5029148;28;20030;-65
2024/01/22 11:21:32;;;;;;;4.13;1.60;;;11.90;86.80;;;;;;5024446;28;20493;-65
2024/01/22 11:24:19;;;;;;;5.53;1.60;;;11.90;86.60;;;;;;5065618;28;20141;-65
2024/01/22 11:27:00;;;;;;;10.57;1.30;;;12.10;86.40;;;;;;5026873;28;20022;-65
2024/01/22 11:29:27;;;;;;;3.67;1.75;;;12.20;85.90;;;;;;5036783;28;20025;-65
2024/01/22 11:31:53;;;;;;;11.95;1.88;;;12.20;85.50;;;;;;5034611;28;20663;-66
2024/01/22 11:34:41;;;;;;;4.53;1.30;;;12.20;85.10;;;;;;5036310;28;20025;-66
2024/01/22 11:37:07;;;;;;;7.55;1.67;;;12.30;84.20;;;;;;5029762;28;20026;-66
2024/01/22 11:39:34;;;;;;;9.55;2.13;;;12.30;84.00;;;;;;5032551;28;20435;-65
2024/01/22 11:42:16;;;;;;;4.80;1.75;;;12.50;84.10;;;;;;5033302;28;20079;-65
2024/01/22 11:44:46;;;;;;;4.20;1.80;;;13.40;82.70;;;;;;5046214;28;20037;-67
2024/01/22 11:47:11;;;;;;;4.93;1.75;;;14.40;78.60;;;;;;5031186;28;20032;-66
2024/01/22 11:49:37;;;;;;;8.20;2.75;;;14.90;76.10;;;;;;5033626;28;20444;-65
2024/01/22 11:52:10;;;;;;;9.80;3.13;;;15.90;75.20;;;;;;5036388;28;20124;-70
2024/01/22 11:54:36;;;;;;;8.82;1.48;;;17.20;71.50;;;;;;5031228;28;20021;-71
2024/01/22 11:57:03;;;;;;;5.88;2.70;;;17.90;67.90;;;;;;5033863;28;20495;-70
2024/01/22 11:59:29;;;;;;;3.97;1.55;;;17.70;66.40;;;;;;5030918;28;20044;-66
2024/01/22 12:02:10;;;;;;;3.95;1.80;;;17.70;66.60;;;;;;5024446;28;20025;-66
2024/01/22 12:04:36;;;;;;;6.90;2.10;;;17.70;66.10;;;;;;5033162;28;20033;-70
2024/01/22 12:07:02;;;;;;;10.88;2.03;;;17.80;65.20;;;;;;5028470;28;20414;-71
2024/01/22 12:09:34;;;;;;;3.28;1.95;;;17.90;65.00;;;;;;5025243;28;20037;-70
2024/01/22 12:12:04;;;;;;;5.95;1.67;;;17.80;65.50;;;;;;5024806;28;20367;-70
2024/01/22 12:14:30;;;;;;;10.15;1.42;;;17.60;64.60;;;;;;5061355;28;20018;-70
2024/01/22 12:17:03;;;;;;;3.55;1.70;;;17.20;65.30;;;;;;5027792;28;20079;-71
2024/01/22 12:19:29;;;;;;;5.32;1.83;;;17.10;65.10;;;;;;5017928;28;20036;-71
2024/01/22 12:21:56;;;;;;;10.93;2.65;;;17.50;64.60;;;;;;5030365;28;20072;-70
2024/01/22 12:24:21;;;;;;;11.93;3.08;;;17.60;62.80;;;;;;5027892;28;20057;-71
2024/01/22 12:26:54;;;;;;;8.95;1.92;;;17.90;62.80;;;;;;5033373;28;20524;-70
2024/01/22 12:29:24;;;;;;;8.43;1.52;;;18.50;61.10;;;;;;5032976;28;20033;-70
2024/01/22 12:32:04;;;;;;;18.35;2.40;;;17.80;60.80;;;;;;5037977;28;20542;-70
2024/01/22 12:34:30;;;;;;;6.45;1.55;;;17.20;62.30;;;;;;5030365;28;20026;-70
2024/01/22 12:36:56;;;;;;;8.30;1.67;;;16.80;63.10;;;;;;5035521;28;20026;-70
2024/01/22 12:39:22;;;;;;;4.93;1.55;;;16.40;64.00;;;;;;5038683;28;20031;-70
2024/01/22 12:41:47;;;;;;;6.28;2.30;;;16.30;65.20;;;;;;5035638;28;20117;-71
2024/01/22 12:44:13;;;;;;;9.73;2.95;;;16.30;64.70;;;;;;5040105;28;20022;-71
2024/01/22 12:46:39;;;;;;;4.68;2.15;;;16.10;64.20;;;;;;5037397;28;20034;-70